sensor_id;sensor_type;location;lat;lon;timestamp;temperature;humidity
9760;DHT22;4919;48.792;9.202;2022-07-29T00:02:18;15.50;99.90
9760;DHT22;4919;48.792;9.202;2022-07-29T00:04:45;15.50;99.90
9760;DHT22;4919;48.792;9.202;2022-07-29T00:07:12;15.40;99.90
9760;DHT22;4919;48.792;9.202;2022-07-29T00:09:39;15.40;99.90
9760;DHT22;4919;48.792;9.202;2022-07-29T00:12:19;15.40;99.90
9760;DHT22;4919;48.792;9.202;2022-07-29T00:14:55;15.30;99.90
9760;DHT22;4919;48.792;9.202;2022-07-29T00:17:23;15.30;99.90
9760;DHT22;4919;48.792;9.202;2022-07-29T00:19:51;15.30;99.90
9760;DHT22;4919;48.792;9.202;2022-07-29T00:22:19;15.20;99.90
9760;DHT22;4919;48.792;9.202;2022-07-29T00:24:49;15.30;99.90
9760;DHT22;4919;48.792;9.202;2022-07-29T00:27:17;15.30;99.90
9760;DHT22;4919;48.792;9.202;2022-07-29T00:29:44;15.20;99.90
9760;DHT22;4919;48.792;9.202;2022-07-29T00:32:12;15.30;99.90
9760;DHT22;4919;48.792;9.202;2022-07-29T00:34:39;15.20;99.90
9760;DHT22;4919;48.792;9.202;2022-07-29T00:37:25;15.20;99.90
9760;DHT22;4919;48.792;9.202;2022-07-29T00:39:52;15.10;99.90
9760;DHT22;4919;48.792;9.202;2022-07-29T00:42:19;15.10;99.90
9760;DHT22;4919;48.792;9.202;2022-07-29T00:44:46;15.10;99.90
9760;DHT22;4919;48.792;9.202;2022-07-29T00:47:13;15.00;99.90
9760;DHT22;4919;48.792;9.202;2022-07-29T00:49:41;15.00;99.90
9760;DHT22;4919;48.792;9.202;2022-07-29T00:52:09;15.00;99.90
9760;DHT22;4919;48.792;9.202;2022-07-29T00:54:38;15.00;99.90
9760;DHT22;4919;48.792;9.202;2022-07-29T00:57:11;15.00;99.90
9760;DHT22;4919;48.792;9.202;2022-07-29T00:59:38;14.90;99.90
9760;DHT22;4919;48.792;9.202;2022-07-29T01:02:05;14.90;99.90
9760;DHT22;4919;48.792;9.202;2022-07-29T01:04:33;15.00;99.90
9760;DHT22;4919;48.792;9.202;2022-07-29T01:07:01;15.00;99.90
9760;DHT22;4919;48.792;9.202;2022-07-29T01:09:31;15.00;99.90
9760;DHT22;4919;48.792;9.202;2022-07-29T01:12:16;14.90;99.90
9760;DHT22;4919;48.792;9.202;2022-07-29T01:14:44;14.90;99.90
9760;DHT22;4919;48.792;9.202;2022-07-29T01:22:48;14.90;99.90
9760;DHT22;4919;48.792;9.202;2022-07-29T01:31:00;14.80;99.90
9760;DHT22;4919;48.792;9.202;2022-07-29T01:33:33;14.80;99.90
9760;DHT22;4919;48.792;9.202;2022-07-29T01:36:45;14.80;99.90
9760;DHT22;4919;48.792;9.202;2022-07-29T01:39:26;14.70;99.90
9760;DHT22;4919;48.792;9.202;2022-07-29T01:42:03;14.80;99.90
9760;DHT22;4919;48.792;9.202;2022-07-29T01:44:35;14.70;99.90
9760;DHT22;4919;48.792;9.202;2022-07-29T01:47:14;14.70;99.90
9760;DHT22;4919;48.792;9.202;2022-07-29T01:49:47;14.70;99.90
9760;DHT22;4919;48.792;9.202;2022-07-29T01:52:29;14.70;99.90
9760;DHT22;4919;48.792;9.202;2022-07-29T01:54:59;14.70;99.90
9760;DHT22;4919;48.792;9.202;2022-07-29T01:57:31;14.60;99.90
9760;DHT22;4919;48.792;9.202;2022-07-29T02:00:01;14.60;99.90
9760;DHT22;4919;48.792;9.202;2022-07-29T02:02:40;14.50;99.90
9760;DHT22;4919;48.792;9.202;2022-07-29T02:05:12;14.50;99.90
9760;DHT22;4919;48.792;9.202;2022-07-29T02:07:42;14.50;99.90
9760;DHT22;4919;48.792;9.202;2022-07-29T02:10:10;14.40;99.90
9760;DHT22;4919;48.792;9.202;2022-07-29T02:12:39;14.30;99.90
9760;DHT22;4919;48.792;9.202;2022-07-29T02:15:06;14.30;99.90
9760;DHT22;4919;48.792;9.202;2022-07-29T02:17:49;14.30;99.90
9760;DHT22;4919;48.792;9.202;2022-07-29T02:20:17;14.30;99.90
9760;DHT22;4919;48.792;9.202;2022-07-29T02:22:44;14.20;99.90
9760;DHT22;4919;48.792;9.202;2022-07-29T02:25:13;14.30;99.90
9760;DHT22;4919;48.792;9.202;2022-07-29T02:27:43;14.20;99.90
9760;DHT22;4919;48.792;9.202;2022-07-29T02:30:12;14.20;99.90
9760;DHT22;4919;48.792;9.202;2022-07-29T02:32:40;14.10;99.90
9760;DHT22;4919;48.792;9.202;2022-07-29T02:35:09;14.20;99.90
9760;DHT22;4919;48.792;9.202;2022-07-29T02:37:37;14.10;99.90
9760;DHT22;4919;48.792;9.202;2022-07-29T02:40:09;14.10;99.90
9760;DHT22;4919;48.792;9.202;2022-07-29T02:42:39;14.10;99.90
9760;DHT22;4919;48.792;9.202;2022-07-29T02:45:08;14.00;99.90
9760;DHT22;4919;48.792;9.202;2022-07-29T02:47:46;14.10;99.90
9760;DHT22;4919;48.792;9.202;2022-07-29T02:50:28;14.10;99.90
9760;DHT22;4919;48.792;9.202;2022-07-29T02:53:09;14.10;99.90
9760;DHT22;4919;48.792;9.202;2022-07-29T02:55:45;14.10;99.90
9760;DHT22;4919;48.792;9.202;2022-07-29T02:58:34;14.10;99.90
9760;DHT22;4919;48.792;9.202;2022-07-29T03:01:08;14.10;99.90
9760;DHT22;4919;48.792;9.202;2022-07-29T03:03:37;14.10;99.90
9760;DHT22;4919;48.792;9.202;2022-07-29T03:06:05;14.10;99.90
9760;DHT22;4919;48.792;9.202;2022-07-29T03:08:34;14.20;99.90
9760;DHT22;4919;48.792;9.202;2022-07-29T03:11:01;14.20;99.90
9760;DHT22;4919;48.792;9.202;2022-07-29T03:13:29;14.30;99.90
9760;DHT22;4919;48.792;9.202;2022-07-29T03:15:57;14.30;99.90
9760;DHT22;4919;48.792;9.202;2022-07-29T03:18:25;14.30;99.90
9760;DHT22;4919;48.792;9.202;2022-07-29T03:20:52;14.30;99.90
9760;DHT22;4919;48.792;9.202;2022-07-29T03:23:20;14.30;99.90
9760;DHT22;4919;48.792;9.202;2022-07-29T03:25:50;14.30;99.90
9760;DHT22;4919;48.792;9.202;2022-07-29T03:28:17;14.40;99.90
9760;DHT22;4919;48.792;9.202;2022-07-29T03:30:44;14.40;99.90
9760;DHT22;4919;48.792;9.202;2022-07-29T03:33:12;14.30;99.90
9760;DHT22;4919;48.792;9.202;2022-07-29T03:35:39;14.30;99.90
9760;DHT22;4919;48.792;9.202;2022-07-29T03:38:06;14.40;99.90
9760;DHT22;4919;48.792;9.202;2022-07-29T03:40:56;14.30;99.90
9760;DHT22;4919;48.792;9.202;2022-07-29T03:43:24;14.30;99.90
9760;DHT22;4919;48.792;9.202;2022-07-29T03:45:54;14.40;99.90
9760;DHT22;4919;48.792;9.202;2022-07-29T03:48:25;14.40;99.90
9760;DHT22;4919;48.792;9.202;2022-07-29T03:50:53;14.30;99.90
9760;DHT22;4919;48.792;9.202;2022-07-29T03:53:20;14.30;99.90
9760;DHT22;4919;48.792;9.202;2022-07-29T03:55:50;14.40;99.90
9760;DHT22;4919;48.792;9.202;2022-07-29T03:58:19;14.50;99.90
9760;DHT22;4919;48.792;9.202;2022-07-29T04:00:46;14.50;99.90
9760;DHT22;4919;48.792;9.202;2022-07-29T04:03:15;14.60;99.90
9760;DHT22;4919;48.792;9.202;2022-07-29T04:05:42;14.70;99.90
9760;DHT22;4919;48.792;9.202;2022-07-29T04:08:09;14.70;99.90
9760;DHT22;4919;48.792;9.202;2022-07-29T04:10:37;14.70;99.90
9760;DHT22;4919;48.792;9.202;2022-07-29T04:13:05;14.70;99.90
9760;DHT22;4919;48.792;9.202;2022-07-29T04:15:32;14.80;99.90
9760;DHT22;4919;48.792;9.202;2022-07-29T04:17:59;14.80;99.90
9760;DHT22;4919;48.792;9.202;2022-07-29T04:20:26;14.80;99.90
9760;DHT22;4919;48.792;9.202;2022-07-29T04:22:53;14.80;99.90
9760;DHT22;4919;48.792;9.202;2022-07-29T04:25:20;14.80;99.90
9760;DHT22;4919;48.792;9.202;2022-07-29T04:27:47;14.90;99.90
9760;DHT22;4919;48.792;9.202;2022-07-29T04:30:30;14.90;99.90
9760;DHT22;4919;48.792;9.202;2022-07-29T04:32:58;15.00;99.90
9760;DHT22;4919;48.792;9.202;2022-07-29T04:35:25;15.00;99.90
9760;DHT22;4919;48.792;9.202;2022-07-29T04:37:52;15.10;99.90
9760;DHT22;4919;48.792;9.202;2022-07-29T04:40:19;15.20;99.90
9760;DHT22;4919;48.792;9.202;2022-07-29T04:42:46;15.20;99.90
9760;DHT22;4919;48.792;9.202;2022-07-29T04:45:15;15.30;99.90
9760;DHT22;4919;48.792;9.202;2022-07-29T04:47:48;15.30;99.90
9760;DHT22;4919;48.792;9.202;2022-07-29T04:50:14;15.30;99.90
9760;DHT22;4919;48.792;9.202;2022-07-29T04:52:42;15.40;99.90
9760;DHT22;4919;48.792;9.202;2022-07-29T04:55:09;15.40;99.90
9760;DHT22;4919;48.792;9.202;2022-07-29T04:57:36;15.40;99.90
9760;DHT22;4919;48.792;9.202;2022-07-29T05:00:05;15.50;99.90
9760;DHT22;4919;48.792;9.202;2022-07-29T05:02:32;15.60;99.90
9760;DHT22;4919;48.792;9.202;2022-07-29T05:04:59;15.60;99.90
9760;DHT22;4919;48.792;9.202;2022-07-29T05:07:26;15.60;99.90
9760;DHT22;4919;48.792;9.202;2022-07-29T05:09:52;15.70;99.90
9760;DHT22;4919;48.792;9.202;2022-07-29T05:12:20;15.70;99.90
9760;DHT22;4919;48.792;9.202;2022-07-29T05:14:46;15.70;99.90
9760;DHT22;4919;48.792;9.202;2022-07-29T05:17:13;15.70;99.90
9760;DHT22;4919;48.792;9.202;2022-07-29T05:19:40;15.80;99.90
9760;DHT22;4919;48.792;9.202;2022-07-29T05:22:07;15.70;99.90
9760;DHT22;4919;48.792;9.202;2022-07-29T05:24:34;15.80;99.90
9760;DHT22;4919;48.792;9.202;2022-07-29T05:27:01;15.80;99.90
9760;DHT22;4919;48.792;9.202;2022-07-29T05:29:28;15.80;99.90
9760;DHT22;4919;48.792;9.202;2022-07-29T05:32:11;15.90;99.90
9760;DHT22;4919;48.792;9.202;2022-07-29T05:34:39;15.90;99.90
9760;DHT22;4919;48.792;9.202;2022-07-29T05:37:20;16.00;99.90
9760;DHT22;4919;48.792;9.202;2022-07-29T05:39:47;16.00;99.90
9760;DHT22;4919;48.792;9.202;2022-07-29T05:42:23;16.10;99.90
9760;DHT22;4919;48.792;9.202;2022-07-29T05:44:50;16.20;99.90
9760;DHT22;4919;48.792;9.202;2022-07-29T05:47:17;16.30;99.90
9760;DHT22;4919;48.792;9.202;2022-07-29T05:49:44;16.30;99.90
9760;DHT22;4919;48.792;9.202;2022-07-29T05:52:11;16.40;99.90
9760;DHT22;4919;48.792;9.202;2022-07-29T05:54:38;16.50;99.90
9760;DHT22;4919;48.792;9.202;2022-07-29T05:57:05;16.80;99.90
9760;DHT22;4919;48.792;9.202;2022-07-29T05:59:37;17.10;99.90
9760;DHT22;4919;48.792;9.202;2022-07-29T06:02:04;17.40;99.90
9760;DHT22;4919;48.792;9.202;2022-07-29T06:04:32;17.50;99.90
9760;DHT22;4919;48.792;9.202;2022-07-29T06:07:00;17.60;99.90
9760;DHT22;4919;48.792;9.202;2022-07-29T06:09:28;17.90;99.90
9760;DHT22;4919;48.792;9.202;2022-07-29T06:11:55;18.10;99.90
9760;DHT22;4919;48.792;9.202;2022-07-29T06:14:22;18.20;99.90
9760;DHT22;4919;48.792;9.202;2022-07-29T06:16:49;18.20;99.90
9760;DHT22;4919;48.792;9.202;2022-07-29T06:19:16;18.30;99.90
9760;DHT22;4919;48.792;9.202;2022-07-29T06:21:44;18.20;99.90
9760;DHT22;4919;48.792;9.202;2022-07-29T06:24:12;18.40;99.90
9760;DHT22;4919;48.792;9.202;2022-07-29T06:26:40;18.90;99.90
9760;DHT22;4919;48.792;9.202;2022-07-29T06:29:08;19.20;99.90
9760;DHT22;4919;48.792;9.202;2022-07-29T06:31:37;19.30;99.90
9760;DHT22;4919;48.792;9.202;2022-07-29T06:34:04;19.20;99.90
9760;DHT22;4919;48.792;9.202;2022-07-29T06:36:37;19.20;99.90
9760;DHT22;4919;48.792;9.202;2022-07-29T06:39:07;19.00;99.90
9760;DHT22;4919;48.792;9.202;2022-07-29T06:41:35;18.90;99.90
9760;DHT22;4919;48.792;9.202;2022-07-29T06:44:08;18.80;99.90
9760;DHT22;4919;48.792;9.202;2022-07-29T06:46:35;18.70;99.90
9760;DHT22;4919;48.792;9.202;2022-07-29T06:49:03;18.70;99.90
9760;DHT22;4919;48.792;9.202;2022-07-29T06:51:30;18.60;99.90
9760;DHT22;4919;48.792;9.202;2022-07-29T06:53:57;18.60;99.90
9760;DHT22;4919;48.792;9.202;2022-07-29T06:56:30;18.70;99.90
9760;DHT22;4919;48.792;9.202;2022-07-29T06:59:06;18.70;99.90
9760;DHT22;4919;48.792;9.202;2022-07-29T07:01:36;18.80;99.90
9760;DHT22;4919;48.792;9.202;2022-07-29T07:04:03;18.80;99.90
9760;DHT22;4919;48.792;9.202;2022-07-29T07:06:31;18.90;99.90
9760;DHT22;4919;48.792;9.202;2022-07-29T07:08:57;19.00;99.90
9760;DHT22;4919;48.792;9.202;2022-07-29T07:11:24;19.00;99.90
9760;DHT22;4919;48.792;9.202;2022-07-29T07:13:51;19.10;99.90
9760;DHT22;4919;48.792;9.202;2022-07-29T07:16:18;19.20;99.90
9760;DHT22;4919;48.792;9.202;2022-07-29T07:18:45;19.30;99.90
9760;DHT22;4919;48.792;9.202;2022-07-29T07:21:12;19.40;99.90
9760;DHT22;4919;48.792;9.202;2022-07-29T07:23:45;19.60;99.90
9760;DHT22;4919;48.792;9.202;2022-07-29T07:26:13;19.60;99.90
9760;DHT22;4919;48.792;9.202;2022-07-29T07:28:40;19.80;99.90
9760;DHT22;4919;48.792;9.202;2022-07-29T07:31:07;20.00;99.90
9760;DHT22;4919;48.792;9.202;2022-07-29T07:33:34;20.00;99.90
9760;DHT22;4919;48.792;9.202;2022-07-29T07:36:00;20.00;99.90
9760;DHT22;4919;48.792;9.202;2022-07-29T07:38:27;20.10;99.90
9760;DHT22;4919;48.792;9.202;2022-07-29T07:40:54;20.10;99.90
9760;DHT22;4919;48.792;9.202;2022-07-29T07:43:21;20.20;99.90
9760;DHT22;4919;48.792;9.202;2022-07-29T07:45:49;20.30;99.90
9760;DHT22;4919;48.792;9.202;2022-07-29T07:48:16;20.50;99.90
9760;DHT22;4919;48.792;9.202;2022-07-29T07:50:43;20.50;99.90
9760;DHT22;4919;48.792;9.202;2022-07-29T07:53:10;20.80;99.90
9760;DHT22;4919;48.792;9.202;2022-07-29T07:55:44;20.90;99.90
9760;DHT22;4919;48.792;9.202;2022-07-29T07:58:31;21.10;99.90
9760;DHT22;4919;48.792;9.202;2022-07-29T08:00:58;21.40;99.90
9760;DHT22;4919;48.792;9.202;2022-07-29T08:03:25;21.50;99.90
9760;DHT22;4919;48.792;9.202;2022-07-29T08:05:52;21.60;99.90
9760;DHT22;4919;48.792;9.202;2022-07-29T08:08:20;21.70;99.90
9760;DHT22;4919;48.792;9.202;2022-07-29T08:10:47;21.70;99.90
9760;DHT22;4919;48.792;9.202;2022-07-29T08:13:23;21.70;99.90
9760;DHT22;4919;48.792;9.202;2022-07-29T08:15:51;21.60;99.90
9760;DHT22;4919;48.792;9.202;2022-07-29T08:18:26;21.70;99.90
9760;DHT22;4919;48.792;9.202;2022-07-29T08:20:53;21.90;99.90
9760;DHT22;4919;48.792;9.202;2022-07-29T08:23:21;22.10;99.90
9760;DHT22;4919;48.792;9.202;2022-07-29T08:25:48;22.20;99.90
9760;DHT22;4919;48.792;9.202;2022-07-29T08:28:16;22.30;99.90
9760;DHT22;4919;48.792;9.202;2022-07-29T08:30:43;22.30;99.90
9760;DHT22;4919;48.792;9.202;2022-07-29T08:33:10;22.30;99.90
9760;DHT22;4919;48.792;9.202;2022-07-29T08:35:38;22.30;99.90
9760;DHT22;4919;48.792;9.202;2022-07-29T08:38:05;22.30;99.90
9760;DHT22;4919;48.792;9.202;2022-07-29T08:40:32;22.30;99.90
9760;DHT22;4919;48.792;9.202;2022-07-29T08:43:05;22.30;99.90
9760;DHT22;4919;48.792;9.202;2022-07-29T08:45:47;22.40;99.90
9760;DHT22;4919;48.792;9.202;2022-07-29T08:48:20;22.40;99.90
9760;DHT22;4919;48.792;9.202;2022-07-29T08:50:50;22.50;99.90
9760;DHT22;4919;48.792;9.202;2022-07-29T08:53:19;22.60;99.90
9760;DHT22;4919;48.792;9.202;2022-07-29T08:55:47;22.60;99.90
9760;DHT22;4919;48.792;9.202;2022-07-29T08:58:15;22.60;99.90
9760;DHT22;4919;48.792;9.202;2022-07-29T09:00:46;22.80;99.90
9760;DHT22;4919;48.792;9.202;2022-07-29T09:03:20;22.90;99.90
9760;DHT22;4919;48.792;9.202;2022-07-29T09:05:47;23.00;99.90
9760;DHT22;4919;48.792;9.202;2022-07-29T09:08:16;23.30;99.90
9760;DHT22;4919;48.792;9.202;2022-07-29T09:10:44;23.70;99.90
9760;DHT22;4919;48.792;9.202;2022-07-29T09:13:11;24.10;99.90
9760;DHT22;4919;48.792;9.202;2022-07-29T09:15:37;24.50;99.90
9760;DHT22;4919;48.792;9.202;2022-07-29T09:18:04;24.60;99.90
9760;DHT22;4919;48.792;9.202;2022-07-29T09:20:31;24.90;99.90
9760;DHT22;4919;48.792;9.202;2022-07-29T09:23:17;25.40;99.90
9760;DHT22;4919;48.792;9.202;2022-07-29T09:25:49;25.90;99.90
9760;DHT22;4919;48.792;9.202;2022-07-29T09:28:16;26.30;99.90
9760;DHT22;4919;48.792;9.202;2022-07-29T09:30:55;26.70;99.90
9760;DHT22;4919;48.792;9.202;2022-07-29T09:33:23;26.60;99.90
9760;DHT22;4919;48.792;9.202;2022-07-29T09:36:08;26.40;99.90
9760;DHT22;4919;48.792;9.202;2022-07-29T09:38:36;26.30;99.90
9760;DHT22;4919;48.792;9.202;2022-07-29T09:41:05;25.90;99.90
9760;DHT22;4919;48.792;9.202;2022-07-29T09:43:33;25.70;99.90
9760;DHT22;4919;48.792;9.202;2022-07-29T09:46:13;25.70;99.90
9760;DHT22;4919;48.792;9.202;2022-07-29T09:48:40;25.70;99.90
9760;DHT22;4919;48.792;9.202;2022-07-29T09:51:20;25.70;99.90
9760;DHT22;4919;48.792;9.202;2022-07-29T09:53:55;25.70;99.90
9760;DHT22;4919;48.792;9.202;2022-07-29T09:56:41;26.10;99.90
9760;DHT22;4919;48.792;9.202;2022-07-29T09:59:09;26.30;99.90
9760;DHT22;4919;48.792;9.202;2022-07-29T10:01:37;26.40;99.90
9760;DHT22;4919;48.792;9.202;2022-07-29T10:04:04;26.50;99.90
9760;DHT22;4919;48.792;9.202;2022-07-29T10:06:31;26.40;99.90
9760;DHT22;4919;48.792;9.202;2022-07-29T10:09:08;25.80;99.90
9760;DHT22;4919;48.792;9.202;2022-07-29T10:11:35;25.70;99.90
9760;DHT22;4919;48.792;9.202;2022-07-29T10:14:22;25.70;99.90
9760;DHT22;4919;48.792;9.202;2022-07-29T10:16:49;25.70;99.90
9760;DHT22;4919;48.792;9.202;2022-07-29T10:19:16;25.70;99.90
9760;DHT22;4919;48.792;9.202;2022-07-29T10:21:44;25.50;99.90
9760;DHT22;4919;48.792;9.202;2022-07-29T10:24:11;25.20;99.90
9760;DHT22;4919;48.792;9.202;2022-07-29T10:26:41;25.20;99.90
9760;DHT22;4919;48.792;9.202;2022-07-29T10:29:08;25.10;99.90
9760;DHT22;4919;48.792;9.202;2022-07-29T10:35:06;25.40;99.90
9760;DHT22;4919;48.792;9.202;2022-07-29T10:38:02;25.90;99.90
9760;DHT22;4919;48.792;9.202;2022-07-29T10:41:27;26.80;99.90
9760;DHT22;4919;48.792;9.202;2022-07-29T10:44:18;27.50;99.90
9760;DHT22;4919;48.792;9.202;2022-07-29T10:46:50;27.70;99.90
9760;DHT22;4919;48.792;9.202;2022-07-29T10:49:18;27.90;99.90
9760;DHT22;4919;48.792;9.202;2022-07-29T10:54:43;27.70;99.90
9760;DHT22;4919;48.792;9.202;2022-07-29T11:02:46;27.20;99.90
9760;DHT22;4919;48.792;9.202;2022-07-29T11:05:19;27.90;99.90
9760;DHT22;4919;48.792;9.202;2022-07-29T11:10:51;28.40;99.90
9760;DHT22;4919;48.792;9.202;2022-07-29T11:13:44;28.40;99.90
9760;DHT22;4919;48.792;9.202;2022-07-29T11:16:16;28.80;99.90
9760;DHT22;4919;48.792;9.202;2022-07-29T11:21:41;28.10;99.90
9760;DHT22;4919;48.792;9.202;2022-07-29T11:24:29;28.00;99.90
9760;DHT22;4919;48.792;9.202;2022-07-29T11:29:56;28.10;99.90
9760;DHT22;4919;48.792;9.202;2022-07-29T11:32:25;28.10;99.90
9760;DHT22;4919;48.792;9.202;2022-07-29T11:35:18;28.30;99.90
9760;DHT22;4919;48.792;9.202;2022-07-29T11:38:26;28.50;99.90
9760;DHT22;4919;48.792;9.202;2022-07-29T11:46:43;28.40;99.90
9760;DHT22;4919;48.792;9.202;2022-07-29T11:49:12;28.30;99.90
9760;DHT22;4919;48.792;9.202;2022-07-29T11:51:41;28.40;99.90
9760;DHT22;4919;48.792;9.202;2022-07-29T11:54:16;28.30;99.90
9760;DHT22;4919;48.792;9.202;2022-07-29T11:56:53;28.20;99.90
9760;DHT22;4919;48.792;9.202;2022-07-29T11:59:21;28.30;99.90
9760;DHT22;4919;48.792;9.202;2022-07-29T12:01:58;28.20;99.90
9760;DHT22;4919;48.792;9.202;2022-07-29T12:04:56;27.70;99.90
9760;DHT22;4919;48.792;9.202;2022-07-29T12:07:27;27.30;99.90
9760;DHT22;4919;48.792;9.202;2022-07-29T12:10:01;27.40;99.90
9760;DHT22;4919;48.792;9.202;2022-07-29T12:12:28;27.80;99.90
9760;DHT22;4919;48.792;9.202;2022-07-29T12:14:55;27.50;99.90
9760;DHT22;4919;48.792;9.202;2022-07-29T12:17:25;27.70;99.90
9760;DHT22;4919;48.792;9.202;2022-07-29T12:19:57;27.70;99.90
9760;DHT22;4919;48.792;9.202;2022-07-29T12:22:36;28.10;99.90
9760;DHT22;4919;48.792;9.202;2022-07-29T12:25:12;28.10;99.90
9760;DHT22;4919;48.792;9.202;2022-07-29T12:28:00;28.30;99.90
9760;DHT22;4919;48.792;9.202;2022-07-29T12:33:22;28.00;99.90
9760;DHT22;4919;48.792;9.202;2022-07-29T12:35:51;27.60;99.90
9760;DHT22;4919;48.792;9.202;2022-07-29T12:38:40;27.40;99.90
9760;DHT22;4919;48.792;9.202;2022-07-29T12:41:08;27.10;99.90
9760;DHT22;4919;48.792;9.202;2022-07-29T12:43:35;27.10;99.90
9760;DHT22;4919;48.792;9.202;2022-07-29T12:46:13;27.10;99.90
9760;DHT22;4919;48.792;9.202;2022-07-29T12:48:41;27.40;99.90
9760;DHT22;4919;48.792;9.202;2022-07-29T12:51:10;27.60;99.90
9760;DHT22;4919;48.792;9.202;2022-07-29T12:53:38;27.50;99.90
9760;DHT22;4919;48.792;9.202;2022-07-29T12:56:06;27.20;99.90
9760;DHT22;4919;48.792;9.202;2022-07-29T12:59:29;27.10;99.90
9760;DHT22;4919;48.792;9.202;2022-07-29T13:01:56;27.10;99.90
9760;DHT22;4919;48.792;9.202;2022-07-29T13:04:31;27.10;99.90
9760;DHT22;4919;48.792;9.202;2022-07-29T13:09:41;27.20;99.90
9760;DHT22;4919;48.792;9.202;2022-07-29T13:12:11;27.20;99.90
9760;DHT22;4919;48.792;9.202;2022-07-29T13:14:40;27.30;99.90
9760;DHT22;4919;48.792;9.202;2022-07-29T13:17:10;27.20;99.90
9760;DHT22;4919;48.792;9.202;2022-07-29T13:19:45;27.10;99.90
9760;DHT22;4919;48.792;9.202;2022-07-29T13:22:14;27.10;99.90
9760;DHT22;4919;48.792;9.202;2022-07-29T13:27:20;27.70;99.90
9760;DHT22;4919;48.792;9.202;2022-07-29T13:29:47;27.60;99.90
9760;DHT22;4919;48.792;9.202;2022-07-29T13:32:15;27.70;99.90
9760;DHT22;4919;48.792;9.202;2022-07-29T13:34:42;27.40;99.90
9760;DHT22;4919;48.792;9.202;2022-07-29T13:37:09;27.10;99.90
9760;DHT22;4919;48.792;9.202;2022-07-29T13:39:36;27.10;99.90
9760;DHT22;4919;48.792;9.202;2022-07-29T13:42:04;27.50;99.90
9760;DHT22;4919;48.792;9.202;2022-07-29T13:44:36;27.70;99.90
9760;DHT22;4919;48.792;9.202;2022-07-29T13:47:03;27.80;99.90
9760;DHT22;4919;48.792;9.202;2022-07-29T13:49:30;27.80;99.90
9760;DHT22;4919;48.792;9.202;2022-07-29T13:51:57;27.90;99.90
9760;DHT22;4919;48.792;9.202;2022-07-29T13:54:24;28.10;99.90
9760;DHT22;4919;48.792;9.202;2022-07-29T13:56:53;28.10;99.90
9760;DHT22;4919;48.792;9.202;2022-07-29T13:59:19;28.00;99.90
9760;DHT22;4919;48.792;9.202;2022-07-29T14:01:46;28.10;99.90
9760;DHT22;4919;48.792;9.202;2022-07-29T14:04:14;27.90;99.90
9760;DHT22;4919;48.792;9.202;2022-07-29T14:06:42;27.70;99.90
9760;DHT22;4919;48.792;9.202;2022-07-29T14:09:09;27.60;99.90
9760;DHT22;4919;48.792;9.202;2022-07-29T14:11:36;27.60;99.90
9760;DHT22;4919;48.792;9.202;2022-07-29T14:14:05;27.70;99.90
9760;DHT22;4919;48.792;9.202;2022-07-29T14:16:32;27.80;99.70
9760;DHT22;4919;48.792;9.202;2022-07-29T14:18:59;27.80;99.90
9760;DHT22;4919;48.792;9.202;2022-07-29T14:21:26;27.80;99.90
9760;DHT22;4919;48.792;9.202;2022-07-29T14:23:52;28.00;99.90
9760;DHT22;4919;48.792;9.202;2022-07-29T14:26:22;28.10;99.90
9760;DHT22;4919;48.792;9.202;2022-07-29T14:28:50;28.20;99.50
9760;DHT22;4919;48.792;9.202;2022-07-29T14:31:17;28.30;99.90
9760;DHT22;4919;48.792;9.202;2022-07-29T14:33:44;28.30;99.70
9760;DHT22;4919;48.792;9.202;2022-07-29T14:36:15;28.40;98.60
9760;DHT22;4919;48.792;9.202;2022-07-29T14:38:42;28.40;98.20
9760;DHT22;4919;48.792;9.202;2022-07-29T14:41:09;28.40;98.30
9760;DHT22;4919;48.792;9.202;2022-07-29T14:43:36;28.50;98.70
9760;DHT22;4919;48.792;9.202;2022-07-29T14:46:03;28.50;99.30
9760;DHT22;4919;48.792;9.202;2022-07-29T14:48:34;28.40;99.10
9760;DHT22;4919;48.792;9.202;2022-07-29T14:51:01;28.30;97.80
9760;DHT22;4919;48.792;9.202;2022-07-29T14:53:31;28.40;98.70
9760;DHT22;4919;48.792;9.202;2022-07-29T14:55:58;28.30;98.60
9760;DHT22;4919;48.792;9.202;2022-07-29T14:58:45;28.50;99.60
9760;DHT22;4919;48.792;9.202;2022-07-29T15:01:17;28.70;99.20
9760;DHT22;4919;48.792;9.202;2022-07-29T15:03:44;28.70;98.40
9760;DHT22;4919;48.792;9.202;2022-07-29T15:06:11;28.70;99.10
9760;DHT22;4919;48.792;9.202;2022-07-29T15:08:38;28.70;98.50
9760;DHT22;4919;48.792;9.202;2022-07-29T15:11:05;28.80;98.00
9760;DHT22;4919;48.792;9.202;2022-07-29T15:13:33;28.70;98.20
9760;DHT22;4919;48.792;9.202;2022-07-29T15:16:00;28.80;98.00
9760;DHT22;4919;48.792;9.202;2022-07-29T15:18:27;29.10;97.80
9760;DHT22;4919;48.792;9.202;2022-07-29T15:20:54;29.10;97.40
9760;DHT22;4919;48.792;9.202;2022-07-29T15:23:20;29.10;97.90
9760;DHT22;4919;48.792;9.202;2022-07-29T15:25:47;29.10;97.30
9760;DHT22;4919;48.792;9.202;2022-07-29T15:28:14;28.90;97.40
9760;DHT22;4919;48.792;9.202;2022-07-29T15:30:41;28.80;97.70
9760;DHT22;4919;48.792;9.202;2022-07-29T15:33:09;28.70;97.50
9760;DHT22;4919;48.792;9.202;2022-07-29T15:35:37;28.40;97.80
9760;DHT22;4919;48.792;9.202;2022-07-29T15:38:06;28.10;97.40
9760;DHT22;4919;48.792;9.202;2022-07-29T15:40:33;27.70;98.40
9760;DHT22;4919;48.792;9.202;2022-07-29T15:43:04;27.40;98.30
9760;DHT22;4919;48.792;9.202;2022-07-29T15:45:40;27.30;98.60
9760;DHT22;4919;48.792;9.202;2022-07-29T15:48:08;27.10;98.70
9760;DHT22;4919;48.792;9.202;2022-07-29T15:50:40;27.10;98.70
9760;DHT22;4919;48.792;9.202;2022-07-29T15:53:07;27.60;97.90
9760;DHT22;4919;48.792;9.202;2022-07-29T15:55:34;27.80;99.10
9760;DHT22;4919;48.792;9.202;2022-07-29T15:58:01;27.90;99.40
9760;DHT22;4919;48.792;9.202;2022-07-29T16:00:27;28.10;98.10
9760;DHT22;4919;48.792;9.202;2022-07-29T16:02:54;28.30;97.80
9760;DHT22;4919;48.792;9.202;2022-07-29T16:05:21;28.40;97.50
9760;DHT22;4919;48.792;9.202;2022-07-29T16:07:48;28.40;97.20
9760;DHT22;4919;48.792;9.202;2022-07-29T16:10:15;28.70;96.60
9760;DHT22;4919;48.792;9.202;2022-07-29T16:12:42;28.80;98.40
9760;DHT22;4919;48.792;9.202;2022-07-29T16:15:09;28.60;97.10
9760;DHT22;4919;48.792;9.202;2022-07-29T16:17:37;28.50;98.00
9760;DHT22;4919;48.792;9.202;2022-07-29T16:20:05;28.30;97.80
9760;DHT22;4919;48.792;9.202;2022-07-29T16:22:32;28.40;98.20
9760;DHT22;4919;48.792;9.202;2022-07-29T16:24:59;28.50;98.50
9760;DHT22;4919;48.792;9.202;2022-07-29T16:27:26;28.60;98.60
9760;DHT22;4919;48.792;9.202;2022-07-29T16:30:05;28.50;98.90
9760;DHT22;4919;48.792;9.202;2022-07-29T16:32:32;28.70;98.00
9760;DHT22;4919;48.792;9.202;2022-07-29T16:34:59;28.60;97.70
9760;DHT22;4919;48.792;9.202;2022-07-29T16:37:28;28.50;98.60
9760;DHT22;4919;48.792;9.202;2022-07-29T16:39:59;28.50;98.70
9760;DHT22;4919;48.792;9.202;2022-07-29T16:42:26;28.50;98.30
9760;DHT22;4919;48.792;9.202;2022-07-29T16:45:12;28.30;98.80
9760;DHT22;4919;48.792;9.202;2022-07-29T16:47:39;28.40;97.80
9760;DHT22;4919;48.792;9.202;2022-07-29T16:50:07;28.40;98.20
9760;DHT22;4919;48.792;9.202;2022-07-29T16:52:34;28.20;98.40
9760;DHT22;4919;48.792;9.202;2022-07-29T16:55:03;27.80;98.20
9760;DHT22;4919;48.792;9.202;2022-07-29T16:57:30;27.50;98.30
9760;DHT22;4919;48.792;9.202;2022-07-29T16:59:57;27.40;98.30
9760;DHT22;4919;48.792;9.202;2022-07-29T17:02:24;27.30;97.80
9760;DHT22;4919;48.792;9.202;2022-07-29T17:04:51;27.20;97.90
9760;DHT22;4919;48.792;9.202;2022-07-29T17:07:18;27.10;97.80
9760;DHT22;4919;48.792;9.202;2022-07-29T17:09:45;27.10;98.40